CEB955 RPLL-RPMD
Flight info
| Callsign | CEB955 |
|---|---|
| Flight time | 1h 24m |
| Altitude | 39000 |
| Route | IPATA2R IPATA B462 MASBA W9A BN W9 RIMAR RIMAR2P |
| Aircraft | A339/H-SADE1E2E3GHIJ3J5M1P2RWXY/LB2D1 |
Departure
| Time | 2026-05-07 07:19 |
|---|---|
| Airport | Ninoy Aquino International Airport (RPLL) |
Arrival
| Time | 2026-05-07 08:44 |
|---|---|
| Airport | Francisco Bangoy International Airport (RPMD) |
| Time | Latitude | Longitude | Altitude | Speed | Heading |
|---|---|---|---|---|---|
| 2026-05-07 06:48 | 14.51561 | 121.01608 | 90 ft | 0 kts | 44° |
| 2026-05-07 06:53 | 14.51556 | 121.01604 | 90 ft | 2 kts | 44° |
| 2026-05-07 06:53 | 14.51555 | 121.01603 | 90 ft | 0 kts | 44° |
| 2026-05-07 07:02 | 14.51555 | 121.01602 | 90 ft | 0 kts | 44° |
| 2026-05-07 07:02 | 14.51545 | 121.01593 | 90 ft | 2 kts | 44° |
| 2026-05-07 07:02 | 14.51534 | 121.01582 | 90 ft | 2 kts | 44° |
| 2026-05-07 07:03 | 14.51523 | 121.01571 | 90 ft | 2 kts | 45° |
| 2026-05-07 07:03 | 14.51514 | 121.01557 | 90 ft | 2 kts | 76° |
| 2026-05-07 07:03 | 14.51513 | 121.01542 | 90 ft | 2 kts | 98° |
| 2026-05-07 07:03 | 14.51517 | 121.01527 | 90 ft | 2 kts | 122° |
| 2026-05-07 07:04 | 14.51522 | 121.01520 | 90 ft | 1 kts | 135° |
| 2026-05-07 07:04 | 14.51525 | 121.01517 | 90 ft | 0 kts | 134° |
| 2026-05-07 07:07 | 14.51524 | 121.01517 | 90 ft | 0 kts | 134° |
| 2026-05-07 07:07 | 14.51514 | 121.01529 | 90 ft | 4 kts | 134° |
| 2026-05-07 07:07 | 14.51486 | 121.01559 | 90 ft | 7 kts | 134° |
| 2026-05-07 07:07 | 14.51478 | 121.01567 | 90 ft | 7 kts | 134° |
| 2026-05-07 07:08 | 14.51441 | 121.01606 | 90 ft | 10 kts | 135° |
| 2026-05-07 07:08 | 14.51384 | 121.01663 | 90 ft | 12 kts | 136° |
| 2026-05-07 07:08 | 14.51325 | 121.01726 | 90 ft | 12 kts | 134° |
| 2026-05-07 07:08 | 14.51262 | 121.01791 | 90 ft | 13 kts | 135° |
| 2026-05-07 07:09 | 14.51196 | 121.01859 | 90 ft | 13 kts | 135° |
| 2026-05-07 07:09 | 14.51164 | 121.01891 | 90 ft | 0 kts | 135° |
| 2026-05-07 07:10 | 14.51162 | 121.01894 | 90 ft | 1 kts | 135° |
| 2026-05-07 07:10 | 14.51144 | 121.01911 | 90 ft | 4 kts | 135° |
| 2026-05-07 07:10 | 14.51115 | 121.01941 | 90 ft | 6 kts | 135° |
| 2026-05-07 07:11 | 14.51077 | 121.01977 | 90 ft | 6 kts | 152° |
| 2026-05-07 07:11 | 14.51033 | 121.01965 | 90 ft | 7 kts | 222° |
| 2026-05-07 07:11 | 14.51000 | 121.01914 | 90 ft | 10 kts | 240° |
| 2026-05-07 07:11 | 14.50960 | 121.01843 | 90 ft | 11 kts | 240° |
| 2026-05-07 07:12 | 14.50917 | 121.01766 | 90 ft | 12 kts | 240° |
| 2026-05-07 07:12 | 14.50872 | 121.01684 | 90 ft | 13 kts | 241° |
| 2026-05-07 07:12 | 14.50824 | 121.01596 | 90 ft | 14 kts | 240° |
| 2026-05-07 07:12 | 14.50772 | 121.01503 | 90 ft | 15 kts | 240° |
| 2026-05-07 07:13 | 14.50718 | 121.01406 | 90 ft | 17 kts | 240° |
| 2026-05-07 07:13 | 14.50650 | 121.01285 | 90 ft | 21 kts | 241° |
| 2026-05-07 07:13 | 14.50569 | 121.01138 | 90 ft | 24 kts | 240° |
| 2026-05-07 07:13 | 14.50484 | 121.00985 | 90 ft | 24 kts | 240° |
| 2026-05-07 07:14 | 14.50398 | 121.00830 | 90 ft | 24 kts | 240° |
| 2026-05-07 07:14 | 14.50314 | 121.00678 | 90 ft | 23 kts | 240° |
| 2026-05-07 07:14 | 14.50232 | 121.00532 | 90 ft | 23 kts | 240° |
| 2026-05-07 07:14 | 14.50153 | 121.00389 | 90 ft | 22 kts | 240° |
| 2026-05-07 07:15 | 14.50076 | 121.00251 | 90 ft | 22 kts | 240° |
| 2026-05-07 07:15 | 14.50000 | 121.00115 | 90 ft | 21 kts | 240° |
| 2026-05-07 07:15 | 14.49933 | 120.99993 | 90 ft | 10 kts | 239° |
| 2026-05-07 07:15 | 14.49897 | 120.99963 | 90 ft | 4 kts | 174° |
| 2026-05-07 07:16 | 14.49893 | 120.99964 | 90 ft | 0 kts | 166° |
| 2026-05-07 07:16 | 14.49892 | 120.99965 | 90 ft | 0 kts | 171° |
| 2026-05-07 07:16 | 14.49880 | 120.99968 | 90 ft | 3 kts | 164° |
| 2026-05-07 07:17 | 14.49847 | 120.99983 | 90 ft | 6 kts | 150° |
| 2026-05-07 07:17 | 14.49803 | 121.00014 | 90 ft | 6 kts | 130° |
| 2026-05-07 07:17 | 14.49805 | 121.00049 | 90 ft | 6 kts | 64° |
| 2026-05-07 07:17 | 14.49810 | 121.00058 | 90 ft | 0 kts | 61° |
| 2026-05-07 07:18 | 14.49827 | 121.00089 | 90 ft | 23 kts | 61° |
| 2026-05-07 07:18 | 14.50023 | 121.00445 | 90 ft | 88 kts | 60° |
| 2026-05-07 07:19 | 14.50425 | 121.01170 | 90 ft | 142 kts | 60° |
| 2026-05-07 07:19 | 14.50975 | 121.02140 | 363 ft | 159 kts | 63° |
| 2026-05-07 07:19 | 14.51516 | 121.03127 | 858 ft | 161 kts | 64° |
| 2026-05-07 07:19 | 14.52070 | 121.04131 | 1406 ft | 163 kts | 62° |
| 2026-05-07 07:20 | 14.52624 | 121.05138 | 1931 ft | 166 kts | 63° |
| 2026-05-07 07:20 | 14.53217 | 121.06212 | 2229 ft | 180 kts | 62° |
| 2026-05-07 07:20 | 14.53873 | 121.07403 | 2520 ft | 197 kts | 62° |
| 2026-05-07 07:20 | 14.54582 | 121.08682 | 2836 ft | 212 kts | 62° |
| 2026-05-07 07:21 | 14.55140 | 121.10043 | 3521 ft | 205 kts | 88° |
| 2026-05-07 07:21 | 14.54830 | 121.11395 | 4383 ft | 190 kts | 119° |
| 2026-05-07 07:21 | 14.54006 | 121.12412 | 4974 ft | 191 kts | 133° |
| 2026-05-07 07:21 | 14.53010 | 121.13397 | 5271 ft | 207 kts | 134° |
| 2026-05-07 07:22 | 14.51927 | 121.14460 | 5563 ft | 224 kts | 134° |
| 2026-05-07 07:22 | 14.50750 | 121.15634 | 5867 ft | 241 kts | 134° |
| 2026-05-07 07:22 | 14.49503 | 121.16891 | 6160 ft | 259 kts | 133° |
| 2026-05-07 07:22 | 14.48176 | 121.18237 | 6516 ft | 274 kts | 133° |
| 2026-05-07 07:23 | 14.46822 | 121.19617 | 7117 ft | 279 kts | 133° |
| 2026-05-07 07:23 | 14.45429 | 121.21041 | 7800 ft | 281 kts | 133° |
| 2026-05-07 07:23 | 14.44036 | 121.22468 | 8445 ft | 284 kts | 133° |
| 2026-05-07 07:23 | 14.42630 | 121.23910 | 9099 ft | 287 kts | 133° |
| 2026-05-07 07:24 | 14.41210 | 121.25365 | 9721 ft | 290 kts | 133° |
| 2026-05-07 07:24 | 14.39792 | 121.26820 | 10280 ft | 294 kts | 133° |
| 2026-05-07 07:24 | 14.38291 | 121.28363 | 10619 ft | 309 kts | 133° |
| 2026-05-07 07:24 | 14.36729 | 121.29968 | 10922 ft | 325 kts | 134° |
| 2026-05-07 07:25 | 14.33450 | 121.33330 | 11911 ft | 338 kts | 134° |
| 2026-05-07 07:25 | 14.31777 | 121.35046 | 12525 ft | 341 kts | 133° |
| 2026-05-07 07:25 | 14.30089 | 121.36776 | 13109 ft | 344 kts | 133° |
| 2026-05-07 07:26 | 14.28371 | 121.38538 | 13729 ft | 347 kts | 134° |
| 2026-05-07 07:26 | 14.26661 | 121.40292 | 14295 ft | 351 kts | 133° |
| 2026-05-07 07:26 | 14.24917 | 121.42081 | 14836 ft | 354 kts | 134° |
| 2026-05-07 07:26 | 14.23168 | 121.43874 | 15403 ft | 357 kts | 134° |
| 2026-05-07 07:27 | 14.21393 | 121.45693 | 15967 ft | 361 kts | 133° |
| 2026-05-07 07:27 | 14.19611 | 121.47519 | 16491 ft | 364 kts | 134° |
| 2026-05-07 07:27 | 14.17808 | 121.49367 | 17052 ft | 367 kts | 134° |
| 2026-05-07 07:27 | 14.15997 | 121.51222 | 17589 ft | 370 kts | 134° |
| 2026-05-07 07:28 | 14.14173 | 121.53090 | 18123 ft | 373 kts | 134° |
| 2026-05-07 07:28 | 14.12331 | 121.54977 | 18632 ft | 376 kts | 133° |
| 2026-05-07 07:28 | 14.10450 | 121.56902 | 19141 ft | 379 kts | 134° |
| 2026-05-07 07:28 | 14.08587 | 121.58810 | 19652 ft | 382 kts | 134° |
| 2026-05-07 07:29 | 14.06700 | 121.60741 | 20127 ft | 385 kts | 134° |
| 2026-05-07 07:29 | 14.04773 | 121.62714 | 20616 ft | 388 kts | 134° |
| 2026-05-07 07:29 | 14.02850 | 121.64680 | 21091 ft | 392 kts | 134° |
| 2026-05-07 07:29 | 14.00927 | 121.66647 | 21530 ft | 395 kts | 134° |
| 2026-05-07 07:30 | 13.98959 | 121.68660 | 21978 ft | 398 kts | 134° |
| 2026-05-07 07:30 | 13.97000 | 121.70665 | 22419 ft | 401 kts | 134° |
| 2026-05-07 07:30 | 13.95014 | 121.72697 | 22846 ft | 404 kts | 134° |
| 2026-05-07 07:30 | 13.93002 | 121.74756 | 23289 ft | 407 kts | 134° |
| 2026-05-07 07:31 | 13.90993 | 121.76808 | 23722 ft | 410 kts | 134° |
| 2026-05-07 07:31 | 13.88950 | 121.78894 | 24154 ft | 413 kts | 134° |
| 2026-05-07 07:31 | 13.86945 | 121.80982 | 24579 ft | 416 kts | 132° |
| 2026-05-07 07:31 | 13.85004 | 121.83223 | 25026 ft | 417 kts | 129° |
| 2026-05-07 07:32 | 13.83127 | 121.85507 | 25438 ft | 420 kts | 129° |
| 2026-05-07 07:32 | 13.81252 | 121.87806 | 25837 ft | 423 kts | 129° |
| 2026-05-07 07:32 | 13.79345 | 121.90146 | 26234 ft | 426 kts | 129° |
| 2026-05-07 07:32 | 13.77439 | 121.92484 | 26624 ft | 428 kts | 129° |
| 2026-05-07 07:33 | 13.75518 | 121.94840 | 27020 ft | 431 kts | 129° |
| 2026-05-07 07:33 | 13.73602 | 121.97186 | 27399 ft | 434 kts | 129° |
| 2026-05-07 07:33 | 13.71657 | 121.99568 | 27773 ft | 436 kts | 129° |
| 2026-05-07 07:33 | 13.69694 | 122.01971 | 28149 ft | 439 kts | 129° |
| 2026-05-07 07:34 | 13.67718 | 122.04389 | 28513 ft | 441 kts | 130° |
| 2026-05-07 07:34 | 13.65743 | 122.06805 | 28869 ft | 444 kts | 130° |
| 2026-05-07 07:34 | 13.63743 | 122.09253 | 29211 ft | 446 kts | 130° |
| 2026-05-07 07:34 | 13.61755 | 122.11684 | 29533 ft | 449 kts | 130° |
| 2026-05-07 07:35 | 13.59731 | 122.14159 | 29846 ft | 452 kts | 130° |
| 2026-05-07 07:35 | 13.57719 | 122.16618 | 30162 ft | 454 kts | 130° |
| 2026-05-07 07:35 | 13.55661 | 122.19131 | 30491 ft | 456 kts | 130° |
| 2026-05-07 07:35 | 13.53631 | 122.21610 | 30797 ft | 458 kts | 130° |
| 2026-05-07 07:36 | 13.51587 | 122.24105 | 31092 ft | 460 kts | 131° |
| 2026-05-07 07:36 | 13.49509 | 122.26640 | 31391 ft | 462 kts | 131° |
| 2026-05-07 07:36 | 13.47452 | 122.29149 | 31679 ft | 464 kts | 131° |
| 2026-05-07 07:36 | 13.45353 | 122.31709 | 31966 ft | 466 kts | 131° |
| 2026-05-07 07:37 | 13.43271 | 122.34248 | 32243 ft | 468 kts | 131° |
| 2026-05-07 07:37 | 13.41174 | 122.36803 | 32511 ft | 470 kts | 131° |
| 2026-05-07 07:37 | 13.39043 | 122.39401 | 32821 ft | 473 kts | 131° |
| 2026-05-07 07:37 | 13.37632 | 122.41118 | 33026 ft | 474 kts | 131° |
| 2026-05-07 07:38 | 13.34800 | 122.44566 | 33437 ft | 477 kts | 131° |
| 2026-05-07 07:38 | 13.33384 | 122.46291 | 33641 ft | 478 kts | 131° |
| 2026-05-07 07:38 | 13.30488 | 122.49815 | 34054 ft | 481 kts | 131° |
| 2026-05-07 07:38 | 13.28342 | 122.52426 | 34459 ft | 481 kts | 131° |
| 2026-05-07 07:39 | 13.26202 | 122.55031 | 34952 ft | 479 kts | 131° |
| 2026-05-07 07:39 | 13.24056 | 122.57641 | 35443 ft | 477 kts | 131° |
| 2026-05-07 07:39 | 13.21913 | 122.60248 | 35877 ft | 475 kts | 131° |
| 2026-05-07 07:39 | 13.19780 | 122.62841 | 36264 ft | 475 kts | 131° |
| 2026-05-07 07:40 | 13.17655 | 122.65424 | 36619 ft | 474 kts | 132° |
| 2026-05-07 07:40 | 13.15517 | 122.68019 | 36970 ft | 474 kts | 132° |
| 2026-05-07 07:40 | 13.13419 | 122.70568 | 37310 ft | 473 kts | 132° |
| 2026-05-07 07:40 | 13.11284 | 122.73161 | 37643 ft | 473 kts | 132° |
| 2026-05-07 07:41 | 13.09156 | 122.75743 | 37964 ft | 472 kts | 132° |
| 2026-05-07 07:41 | 13.07039 | 122.78313 | 38273 ft | 472 kts | 132° |
| 2026-05-07 07:41 | 13.04913 | 122.80892 | 38601 ft | 471 kts | 132° |
| 2026-05-07 07:41 | 13.02826 | 122.83423 | 38913 ft | 471 kts | 132° |
| 2026-05-07 07:42 | 13.00691 | 122.86011 | 39214 ft | 470 kts | 132° |
| 2026-05-07 07:42 | 12.98598 | 122.88547 | 39489 ft | 470 kts | 132° |
| 2026-05-07 07:42 | 12.96483 | 122.91110 | 39754 ft | 470 kts | 132° |
| 2026-05-07 07:42 | 12.94373 | 122.93666 | 40005 ft | 470 kts | 132° |
| 2026-05-07 07:43 | 12.92277 | 122.96204 | 40264 ft | 469 kts | 132° |
| 2026-05-07 07:43 | 12.90161 | 122.98766 | 40517 ft | 469 kts | 132° |
| 2026-05-07 07:43 | 12.88035 | 123.01338 | 40712 ft | 469 kts | 132° |
| 2026-05-07 07:43 | 12.85916 | 123.03904 | 40820 ft | 471 kts | 132° |
| 2026-05-07 07:44 | 12.83799 | 123.06464 | 40819 ft | 472 kts | 132° |
| 2026-05-07 07:44 | 12.79537 | 123.11618 | 40825 ft | 471 kts | 131° |
| 2026-05-07 07:45 | 12.75294 | 123.16747 | 40820 ft | 471 kts | 132° |
| 2026-05-07 07:45 | 12.71050 | 123.21873 | 40822 ft | 470 kts | 131° |
| 2026-05-07 07:46 | 12.66815 | 123.26987 | 40827 ft | 470 kts | 131° |
| 2026-05-07 07:46 | 12.62597 | 123.32077 | 40825 ft | 470 kts | 131° |
| 2026-05-07 07:47 | 12.58336 | 123.37215 | 40826 ft | 469 kts | 131° |
| 2026-05-07 07:47 | 12.54119 | 123.42304 | 40827 ft | 469 kts | 131° |
| 2026-05-07 07:48 | 12.49903 | 123.47388 | 40826 ft | 469 kts | 131° |
| 2026-05-07 07:48 | 12.45670 | 123.52490 | 40828 ft | 468 kts | 131° |
| 2026-05-07 07:49 | 12.41366 | 123.57477 | 40830 ft | 467 kts | 136° |
| 2026-05-07 07:49 | 12.36573 | 123.61990 | 40833 ft | 466 kts | 142° |
| 2026-05-07 07:50 | 12.31312 | 123.65910 | 40832 ft | 464 kts | 149° |
| 2026-05-07 07:50 | 12.25674 | 123.69226 | 40830 ft | 463 kts | 153° |
| 2026-05-07 07:51 | 12.19988 | 123.72354 | 40826 ft | 463 kts | 153° |
| 2026-05-07 07:51 | 12.14323 | 123.75471 | 40823 ft | 463 kts | 153° |
| 2026-05-07 07:52 | 12.08641 | 123.78599 | 40819 ft | 463 kts | 153° |
| 2026-05-07 07:52 | 12.02970 | 123.81726 | 40822 ft | 463 kts | 153° |
| 2026-05-07 07:53 | 11.97277 | 123.84861 | 40819 ft | 462 kts | 153° |
| 2026-05-07 07:53 | 11.91600 | 123.87986 | 40820 ft | 462 kts | 153° |
| 2026-05-07 07:54 | 11.85930 | 123.91106 | 40817 ft | 462 kts | 153° |
| 2026-05-07 07:54 | 11.80265 | 123.94222 | 40816 ft | 462 kts | 153° |
| 2026-05-07 07:55 | 11.74565 | 123.97355 | 40813 ft | 461 kts | 153° |
| 2026-05-07 07:55 | 11.68886 | 124.00476 | 40814 ft | 461 kts | 153° |
| 2026-05-07 07:56 | 11.63237 | 124.03579 | 40815 ft | 461 kts | 153° |
| 2026-05-07 07:56 | 11.57580 | 124.06685 | 40812 ft | 460 kts | 153° |
| 2026-05-07 07:57 | 11.51914 | 124.09794 | 40808 ft | 459 kts | 153° |
| 2026-05-07 07:57 | 11.46237 | 124.12909 | 40809 ft | 459 kts | 153° |
| 2026-05-07 07:58 | 11.40588 | 124.16007 | 40807 ft | 459 kts | 152° |
| 2026-05-07 07:58 | 11.34970 | 124.19086 | 40808 ft | 459 kts | 152° |
| 2026-05-07 07:59 | 11.29356 | 124.22163 | 40806 ft | 458 kts | 152° |
| 2026-05-07 07:59 | 11.23714 | 124.25255 | 40807 ft | 458 kts | 152° |
| 2026-05-07 08:00 | 11.18123 | 124.28318 | 40807 ft | 457 kts | 152° |
| 2026-05-07 08:00 | 11.12513 | 124.31393 | 40812 ft | 457 kts | 152° |
| 2026-05-07 08:01 | 11.06864 | 124.34483 | 40818 ft | 457 kts | 152° |
| 2026-05-07 08:01 | 11.01238 | 124.37509 | 40821 ft | 457 kts | 153° |
| 2026-05-07 08:02 | 10.95622 | 124.40527 | 40823 ft | 457 kts | 152° |
| 2026-05-07 08:02 | 10.89990 | 124.43561 | 40824 ft | 456 kts | 152° |
| 2026-05-07 08:03 | 10.84358 | 124.46597 | 40824 ft | 457 kts | 152° |
| 2026-05-07 08:03 | 10.78732 | 124.49629 | 40822 ft | 456 kts | 152° |
| 2026-05-07 08:04 | 10.73087 | 124.52673 | 40817 ft | 456 kts | 152° |
| 2026-05-07 08:04 | 10.67477 | 124.55714 | 40814 ft | 456 kts | 152° |
| 2026-05-07 08:05 | 10.61853 | 124.58765 | 40809 ft | 456 kts | 152° |
| 2026-05-07 08:05 | 10.56233 | 124.61814 | 40808 ft | 456 kts | 152° |
| 2026-05-07 08:06 | 10.50605 | 124.64867 | 40806 ft | 456 kts | 152° |
| 2026-05-07 08:06 | 10.44967 | 124.67924 | 40804 ft | 457 kts | 152° |
| 2026-05-07 08:07 | 10.39325 | 124.70984 | 40805 ft | 457 kts | 152° |
| 2026-05-07 08:07 | 10.33692 | 124.74036 | 40802 ft | 457 kts | 152° |
| 2026-05-07 08:08 | 10.28057 | 124.77088 | 40804 ft | 457 kts | 152° |
| 2026-05-07 08:08 | 10.22466 | 124.80115 | 40801 ft | 457 kts | 152° |
| 2026-05-07 08:09 | 10.16802 | 124.83181 | 40803 ft | 457 kts | 152° |
| 2026-05-07 08:09 | 10.11169 | 124.86228 | 40800 ft | 457 kts | 152° |
| 2026-05-07 08:10 | 10.06509 | 124.88750 | 40801 ft | 457 kts | 152° |
| 2026-05-07 08:11 | 9.88486 | 124.98495 | 40223 ft | 460 kts | 152° |
| 2026-05-07 08:11 | 9.85652 | 125.00028 | 39176 ft | 466 kts | 152° |
| 2026-05-07 08:12 | 9.83705 | 125.01080 | 38387 ft | 471 kts | 152° |
| 2026-05-07 08:12 | 9.79828 | 125.03173 | 37129 ft | 477 kts | 152° |
| 2026-05-07 08:12 | 9.76880 | 125.04762 | 36311 ft | 478 kts | 151° |
| 2026-05-07 08:12 | 9.73935 | 125.06347 | 35511 ft | 479 kts | 151° |
| 2026-05-07 08:13 | 9.70978 | 125.07936 | 34691 ft | 480 kts | 151° |
| 2026-05-07 08:13 | 9.68033 | 125.09524 | 33839 ft | 482 kts | 151° |
| 2026-05-07 08:13 | 9.65063 | 125.11126 | 32932 ft | 485 kts | 150° |
| 2026-05-07 08:13 | 9.62080 | 125.12734 | 32150 ft | 486 kts | 150° |
| 2026-05-07 08:14 | 9.59086 | 125.14343 | 31552 ft | 484 kts | 150° |
| 2026-05-07 08:14 | 9.56136 | 125.15914 | 31042 ft | 480 kts | 150° |
| 2026-05-07 08:14 | 9.53197 | 125.17474 | 30590 ft | 476 kts | 151° |
| 2026-05-07 08:14 | 9.50263 | 125.19034 | 30155 ft | 471 kts | 150° |
| 2026-05-07 08:15 | 9.47357 | 125.20579 | 29744 ft | 466 kts | 150° |
| 2026-05-07 08:15 | 9.44525 | 125.22087 | 29332 ft | 461 kts | 150° |
| 2026-05-07 08:15 | 9.41686 | 125.23599 | 28944 ft | 456 kts | 150° |
| 2026-05-07 08:15 | 9.38905 | 125.25082 | 28581 ft | 451 kts | 150° |
| 2026-05-07 08:16 | 9.36122 | 125.26563 | 28228 ft | 446 kts | 150° |
| 2026-05-07 08:16 | 9.33407 | 125.28010 | 27890 ft | 441 kts | 150° |
| 2026-05-07 08:16 | 9.30682 | 125.29461 | 27541 ft | 436 kts | 150° |
| 2026-05-07 08:16 | 9.28013 | 125.30882 | 27204 ft | 431 kts | 150° |
| 2026-05-07 08:17 | 9.25384 | 125.32284 | 26879 ft | 426 kts | 150° |
| 2026-05-07 08:17 | 9.22774 | 125.33674 | 26546 ft | 422 kts | 150° |
| 2026-05-07 08:17 | 9.20197 | 125.35047 | 26230 ft | 417 kts | 150° |
| 2026-05-07 08:17 | 9.17613 | 125.36423 | 25893 ft | 413 kts | 150° |
| 2026-05-07 08:18 | 9.15107 | 125.37758 | 25573 ft | 409 kts | 149° |
| 2026-05-07 08:18 | 9.12598 | 125.39095 | 25252 ft | 405 kts | 149° |
| 2026-05-07 08:18 | 9.10112 | 125.40419 | 24923 ft | 401 kts | 149° |
| 2026-05-07 08:18 | 9.07655 | 125.41729 | 24590 ft | 398 kts | 149° |
| 2026-05-07 08:19 | 9.05185 | 125.43044 | 24249 ft | 395 kts | 149° |
| 2026-05-07 08:19 | 9.02779 | 125.44325 | 23924 ft | 391 kts | 149° |
| 2026-05-07 08:19 | 9.00366 | 125.45609 | 23589 ft | 388 kts | 149° |
| 2026-05-07 08:19 | 8.97978 | 125.46867 | 23266 ft | 386 kts | 151° |
| 2026-05-07 08:20 | 8.95485 | 125.47884 | 22939 ft | 386 kts | 159° |
| 2026-05-07 08:20 | 8.92873 | 125.48550 | 22604 ft | 386 kts | 167° |
| 2026-05-07 08:20 | 8.90215 | 125.48903 | 22286 ft | 385 kts | 171° |
| 2026-05-07 08:20 | 8.87533 | 125.49174 | 21969 ft | 383 kts | 171° |
| 2026-05-07 08:21 | 8.84882 | 125.49430 | 21641 ft | 380 kts | 171° |
| 2026-05-07 08:21 | 8.82244 | 125.49689 | 21321 ft | 378 kts | 171° |
| 2026-05-07 08:21 | 8.79600 | 125.49951 | 20998 ft | 376 kts | 171° |
| 2026-05-07 08:21 | 8.76998 | 125.50212 | 20679 ft | 374 kts | 171° |
| 2026-05-07 08:22 | 8.74417 | 125.50473 | 20349 ft | 372 kts | 171° |
| 2026-05-07 08:22 | 8.71804 | 125.50738 | 20029 ft | 370 kts | 171° |
| 2026-05-07 08:22 | 8.69240 | 125.51000 | 19736 ft | 367 kts | 171° |
| 2026-05-07 08:22 | 8.66703 | 125.51257 | 19512 ft | 363 kts | 171° |
| 2026-05-07 08:23 | 8.64156 | 125.51519 | 19311 ft | 376 kts | 171° |
| 2026-05-07 08:23 | 8.61546 | 125.51786 | 19079 ft | 381 kts | 171° |
| 2026-05-07 08:23 | 8.58885 | 125.52056 | 18801 ft | 379 kts | 171° |
| 2026-05-07 08:23 | 8.56272 | 125.52321 | 18491 ft | 377 kts | 171° |
| 2026-05-07 08:24 | 8.53644 | 125.52588 | 18156 ft | 375 kts | 171° |
| 2026-05-07 08:24 | 8.51030 | 125.52842 | 17822 ft | 373 kts | 172° |
| 2026-05-07 08:24 | 8.48453 | 125.53072 | 17494 ft | 371 kts | 172° |
| 2026-05-07 08:24 | 8.45905 | 125.53297 | 17166 ft | 369 kts | 172° |
| 2026-05-07 08:25 | 8.43348 | 125.53522 | 16831 ft | 367 kts | 172° |
| 2026-05-07 08:25 | 8.40796 | 125.53748 | 16517 ft | 364 kts | 172° |
| 2026-05-07 08:25 | 8.38266 | 125.53973 | 16191 ft | 362 kts | 172° |
| 2026-05-07 08:25 | 8.35742 | 125.54199 | 15854 ft | 360 kts | 172° |
| 2026-05-07 08:26 | 8.30765 | 125.54645 | 15212 ft | 356 kts | 172° |
| 2026-05-07 08:26 | 8.28287 | 125.54868 | 14889 ft | 354 kts | 172° |
| 2026-05-07 08:26 | 8.25842 | 125.55087 | 14581 ft | 352 kts | 172° |
| 2026-05-07 08:27 | 8.23395 | 125.55308 | 14232 ft | 351 kts | 172° |
| 2026-05-07 08:27 | 8.20975 | 125.55525 | 13888 ft | 350 kts | 172° |
| 2026-05-07 08:27 | 8.18528 | 125.55744 | 13559 ft | 348 kts | 172° |
| 2026-05-07 08:27 | 8.16138 | 125.55959 | 13236 ft | 346 kts | 172° |
| 2026-05-07 08:28 | 8.13747 | 125.56173 | 12906 ft | 344 kts | 172° |
| 2026-05-07 08:28 | 8.11338 | 125.56390 | 12586 ft | 341 kts | 172° |
| 2026-05-07 08:28 | 8.09000 | 125.56601 | 12277 ft | 339 kts | 172° |
| 2026-05-07 08:28 | 8.06616 | 125.56815 | 11951 ft | 338 kts | 172° |
| 2026-05-07 08:29 | 8.04293 | 125.57024 | 11626 ft | 336 kts | 172° |
| 2026-05-07 08:29 | 8.01967 | 125.57233 | 11306 ft | 334 kts | 172° |
| 2026-05-07 08:29 | 7.99659 | 125.57439 | 11000 ft | 332 kts | 172° |
| 2026-05-07 08:29 | 7.97338 | 125.57684 | 10686 ft | 330 kts | 169° |
| 2026-05-07 08:30 | 7.95082 | 125.58076 | 10364 ft | 328 kts | 166° |
| 2026-05-07 08:30 | 7.92877 | 125.58559 | 10199 ft | 320 kts | 165° |
| 2026-05-07 08:30 | 7.90728 | 125.59039 | 10160 ft | 309 kts | 165° |
| 2026-05-07 08:30 | 7.88642 | 125.59508 | 10120 ft | 298 kts | 165° |
| 2026-05-07 08:31 | 7.86653 | 125.59956 | 10029 ft | 289 kts | 164° |
| 2026-05-07 08:31 | 7.84688 | 125.60400 | 9758 ft | 288 kts | 165° |
| 2026-05-07 08:31 | 7.82705 | 125.60845 | 9487 ft | 287 kts | 165° |
| 2026-05-07 08:31 | 7.80746 | 125.61285 | 9225 ft | 286 kts | 165° |
| 2026-05-07 08:32 | 7.78810 | 125.61719 | 8960 ft | 285 kts | 165° |
| 2026-05-07 08:32 | 7.76855 | 125.62157 | 8700 ft | 284 kts | 165° |
| 2026-05-07 08:32 | 7.74931 | 125.62588 | 8446 ft | 283 kts | 165° |
| 2026-05-07 08:32 | 7.73005 | 125.63020 | 8197 ft | 281 kts | 165° |
| 2026-05-07 08:33 | 7.71095 | 125.63448 | 7941 ft | 279 kts | 165° |
| 2026-05-07 08:33 | 7.69190 | 125.63875 | 7692 ft | 278 kts | 165° |
| 2026-05-07 08:33 | 7.67298 | 125.64298 | 7463 ft | 276 kts | 165° |
| 2026-05-07 08:33 | 7.65436 | 125.64713 | 7227 ft | 275 kts | 165° |
| 2026-05-07 08:34 | 7.63577 | 125.65129 | 6977 ft | 273 kts | 165° |
| 2026-05-07 08:34 | 7.61712 | 125.65547 | 6740 ft | 272 kts | 165° |
| 2026-05-07 08:34 | 7.59859 | 125.65962 | 6493 ft | 271 kts | 165° |
| 2026-05-07 08:34 | 7.57991 | 125.66376 | 6251 ft | 270 kts | 165° |
| 2026-05-07 08:35 | 7.56156 | 125.66785 | 6017 ft | 269 kts | 165° |
| 2026-05-07 08:35 | 7.54335 | 125.67194 | 5792 ft | 267 kts | 166° |
| 2026-05-07 08:35 | 7.52520 | 125.67600 | 5549 ft | 267 kts | 166° |
| 2026-05-07 08:35 | 7.50714 | 125.68002 | 5322 ft | 265 kts | 166° |
| 2026-05-07 08:36 | 7.48906 | 125.68407 | 5091 ft | 264 kts | 166° |
| 2026-05-07 08:36 | 7.47089 | 125.68813 | 4860 ft | 263 kts | 166° |
| 2026-05-07 08:36 | 7.45318 | 125.69208 | 4609 ft | 259 kts | 165° |
| 2026-05-07 08:36 | 7.43546 | 125.69605 | 4398 ft | 257 kts | 166° |
| 2026-05-07 08:37 | 7.41812 | 125.69994 | 4176 ft | 255 kts | 166° |
| 2026-05-07 08:37 | 7.40092 | 125.70379 | 4020 ft | 249 kts | 166° |
| 2026-05-07 08:37 | 7.38426 | 125.70751 | 3986 ft | 235 kts | 165° |
| 2026-05-07 08:37 | 7.36867 | 125.71098 | 3985 ft | 221 kts | 166° |
| 2026-05-07 08:38 | 7.35412 | 125.71423 | 3976 ft | 207 kts | 165° |
| 2026-05-07 08:38 | 7.34042 | 125.71729 | 3971 ft | 194 kts | 165° |
| 2026-05-07 08:38 | 7.32738 | 125.72052 | 3989 ft | 195 kts | 161° |
| 2026-05-07 08:38 | 7.31429 | 125.72467 | 3815 ft | 196 kts | 160° |
| 2026-05-07 08:39 | 7.30135 | 125.72891 | 3625 ft | 193 kts | 159° |
| 2026-05-07 08:39 | 7.28850 | 125.73314 | 3455 ft | 189 kts | 160° |
| 2026-05-07 08:39 | 7.27616 | 125.73717 | 3287 ft | 185 kts | 160° |
| 2026-05-07 08:39 | 7.26395 | 125.74115 | 3101 ft | 182 kts | 160° |
| 2026-05-07 08:40 | 7.25176 | 125.74513 | 2897 ft | 181 kts | 160° |
| 2026-05-07 08:40 | 7.23990 | 125.74899 | 2715 ft | 178 kts | 160° |
| 2026-05-07 08:40 | 7.22797 | 125.75279 | 2523 ft | 177 kts | 166° |
| 2026-05-07 08:40 | 7.21590 | 125.75116 | 2266 ft | 182 kts | 212° |
| 2026-05-07 08:41 | 7.20671 | 125.74247 | 2068 ft | 181 kts | 230° |
| 2026-05-07 08:41 | 7.19923 | 125.73246 | 1974 ft | 180 kts | 232° |
| 2026-05-07 08:41 | 7.19141 | 125.72239 | 1760 ft | 179 kts | 229° |
| 2026-05-07 08:41 | 7.18344 | 125.71294 | 1520 ft | 174 kts | 227° |
| 2026-05-07 08:42 | 7.17557 | 125.70390 | 1292 ft | 170 kts | 228° |
| 2026-05-07 08:42 | 7.16787 | 125.69501 | 1074 ft | 165 kts | 228° |
| 2026-05-07 08:42 | 7.16048 | 125.68642 | 871 ft | 159 kts | 228° |
| 2026-05-07 08:42 | 7.15341 | 125.67819 | 678 ft | 153 kts | 228° |
| 2026-05-07 08:43 | 7.14640 | 125.67001 | 486 ft | 154 kts | 230° |
| 2026-05-07 08:43 | 7.13934 | 125.66183 | 316 ft | 154 kts | 228° |
| 2026-05-07 08:43 | 7.13231 | 125.65372 | 129 ft | 151 kts | 229° |
| 2026-05-07 08:43 | 7.12611 | 125.64651 | 126 ft | 113 kts | 231° |
| 2026-05-07 08:44 | 7.12219 | 125.64189 | 126 ft | 62 kts | 228° |
| 2026-05-07 08:44 | 7.12002 | 125.63939 | 126 ft | 37 kts | 229° |
| 2026-05-07 08:44 | 7.11843 | 125.63753 | 126 ft | 29 kts | 229° |
| 2026-05-07 08:44 | 7.11766 | 125.63664 | 126 ft | 10 kts | 231° |
| 2026-05-07 08:45 | 7.11756 | 125.63598 | 126 ft | 8 kts | 272° |
| 2026-05-07 08:45 | 7.11741 | 125.63550 | 126 ft | 7 kts | 227° |
| 2026-05-07 08:45 | 7.11693 | 125.63540 | 126 ft | 7 kts | 154° |
| 2026-05-07 08:45 | 7.11694 | 125.63578 | 126 ft | 7 kts | 52° |
| 2026-05-07 08:46 | 7.11730 | 125.63623 | 126 ft | 9 kts | 51° |
| 2026-05-07 08:46 | 7.11773 | 125.63675 | 126 ft | 10 kts | 46° |
| 2026-05-07 08:46 | 7.11826 | 125.63731 | 126 ft | 11 kts | 46° |
| 2026-05-07 08:46 | 7.11879 | 125.63795 | 126 ft | 12 kts | 51° |
| 2026-05-07 08:47 | 7.11937 | 125.63863 | 126 ft | 13 kts | 50° |
| 2026-05-07 08:47 | 7.12001 | 125.63939 | 126 ft | 14 kts | 49° |
| 2026-05-07 08:47 | 7.12069 | 125.64017 | 126 ft | 15 kts | 49° |
| 2026-05-07 08:47 | 7.12139 | 125.64098 | 126 ft | 15 kts | 49° |
| 2026-05-07 08:48 | 7.12210 | 125.64181 | 126 ft | 15 kts | 49° |
| 2026-05-07 08:48 | 7.12284 | 125.64267 | 126 ft | 16 kts | 49° |
| 2026-05-07 08:48 | 7.12359 | 125.64355 | 126 ft | 16 kts | 49° |
| 2026-05-07 08:48 | 7.12434 | 125.64441 | 126 ft | 11 kts | 49° |
| 2026-05-07 08:49 | 7.12477 | 125.64491 | 126 ft | 10 kts | 49° |
| 2026-05-07 08:49 | 7.12521 | 125.64542 | 126 ft | 6 kts | 48° |
| 2026-05-07 08:49 | 7.12564 | 125.64556 | 126 ft | 7 kts | 343° |
| 2026-05-07 08:49 | 7.12610 | 125.64523 | 126 ft | 9 kts | 322° |
| 2026-05-07 08:50 | 7.12661 | 125.64478 | 126 ft | 9 kts | 317° |
| 2026-05-07 08:50 | 7.12702 | 125.64449 | 126 ft | 7 kts | 344° |
| 2026-05-07 08:50 | 7.12756 | 125.64468 | 126 ft | 9 kts | 45° |
| 2026-05-07 08:50 | 7.12800 | 125.64523 | 126 ft | 10 kts | 50° |
| 2026-05-07 08:51 | 7.12824 | 125.64549 | 125 ft | 3 kts | 46° |
| 2026-05-07 08:51 | 7.12828 | 125.64552 | 125 ft | 2 kts | 29° |
| 2026-05-07 08:52 | 7.12843 | 125.64554 | 126 ft | 3 kts | 352° |
| 2026-05-07 08:52 | 7.12869 | 125.64541 | 126 ft | 5 kts | 324° |
| 2026-05-07 08:52 | 7.12892 | 125.64522 | 125 ft | 4 kts | 320° |
| 2026-05-07 08:52 | 7.12901 | 125.64514 | 125 ft | 0 kts | 319° |